createdAt,value
2023-03-15T00:01:33.528Z,99680.06
2023-03-15T00:04:06.050Z,99685.31
2023-03-15T00:06:36.223Z,99692.31
2023-03-15T00:09:06.507Z,99701.03
2023-03-15T00:11:36.327Z,99710.66
2023-03-15T00:14:06.587Z,99708.91
2023-03-15T00:16:37.917Z,99711.56
2023-03-15T00:19:07.905Z,99718.53
2023-03-15T00:21:37.339Z,99721.16
2023-03-15T00:24:07.676Z,99736.91
2023-03-15T00:26:37.530Z,99729.03
2023-03-15T00:29:08.025Z,99728.13
2023-03-15T00:31:39.190Z,99735.16
2023-03-15T00:34:09.135Z,99731.66
2023-03-15T00:36:38.677Z,99741.28
2023-03-15T00:39:08.586Z,99737.75
2023-03-15T00:41:38.186Z,99750.03
2023-03-15T00:44:08.066Z,99738.66
2023-03-15T00:46:39.242Z,99746.50
2023-03-15T00:49:09.280Z,99761.38
2023-03-15T00:51:38.907Z,99761.38
2023-03-15T00:54:08.894Z,99758.75
2023-03-15T00:56:38.337Z,99767.50
2023-03-15T00:59:08.924Z,99761.38
2023-03-15T01:01:44.882Z,99770.13
2023-03-15T01:04:15.178Z,99708.00
2023-03-15T01:06:44.725Z,99779.72
2023-03-15T01:09:14.892Z,99787.56
2023-03-15T01:11:44.386Z,99784.94
2023-03-15T01:14:14.356Z,99795.44
2023-03-15T01:16:45.366Z,99793.69
2023-03-15T01:19:15.954Z,99798.06
2023-03-15T01:21:48.073Z,99801.56
2023-03-15T01:24:20.280Z,99798.94
2023-03-15T01:26:51.973Z,99808.53
2023-03-15T01:29:23.199Z,99813.78
2023-03-15T01:31:54.434Z,99816.41
2023-03-15T01:34:24.492Z,99826.88
2023-03-15T01:36:54.264Z,99829.50
2023-03-15T01:39:29.176Z,99833.00
2023-03-15T01:41:59.003Z,99831.25
2023-03-15T01:44:49.433Z,99837.34
2023-03-15T01:47:20.836Z,99832.09
2023-03-15T01:49:53.665Z,99843.50
2023-03-15T01:52:26.949Z,99853.97
2023-03-15T01:55:08.509Z,99853.13
2023-03-15T01:57:40.242Z,99858.34
2023-03-15T02:00:13.011Z,99869.72
2023-03-15T02:02:49.405Z,99875.81
2023-03-15T02:05:26.120Z,99880.19
2023-03-15T02:07:56.714Z,99893.28
2023-03-15T02:10:32.568Z,99899.38
2023-03-15T02:13:03.631Z,99903.78
2023-03-15T02:15:34.716Z,99907.28
2023-03-15T02:18:09.136Z,99921.25
2023-03-15T02:20:42.355Z,99923.00
2023-03-15T02:23:13.627Z,99930.00
2023-03-15T02:25:47.636Z,99944.84
2023-03-15T02:28:20.398Z,99946.56
2023-03-15T02:30:50.978Z,99940.41
2023-03-15T02:33:23.868Z,99935.16
2023-03-15T02:35:56.478Z,99939.50
2023-03-15T02:38:26.117Z,99950.81
2023-03-15T02:40:56.017Z,99952.53
2023-03-15T02:43:28.905Z,99961.25
2023-03-15T02:45:59.367Z,99971.72
2023-03-15T02:48:29.763Z,99970.81
2023-03-15T02:50:59.789Z,99977.84
2023-03-15T02:53:30.605Z,99987.41
2023-03-15T02:56:00.893Z,99994.41
2023-03-15T02:58:32.728Z,99992.66
2023-03-15T03:01:04.789Z,100009.25
2023-03-15T03:03:34.480Z,99994.44
2023-03-15T03:06:04.247Z,100004.00
2023-03-15T03:08:33.870Z,100016.13
2023-03-15T03:11:04.104Z,100022.19
2023-03-15T03:13:35.226Z,100030.09
2023-03-15T03:16:08.002Z,100032.72
2023-03-15T03:18:37.610Z,100032.66
2023-03-15T03:21:09.030Z,100047.50
2023-03-15T03:23:38.629Z,100052.72
2023-03-15T03:26:17.231Z,100047.38
2023-03-15T03:28:50.169Z,100064.03
2023-03-15T03:31:21.300Z,100073.59
2023-03-15T03:33:51.973Z,100075.31
2023-03-15T03:36:22.137Z,100073.50
2023-03-15T03:38:51.833Z,100084.88
2023-03-15T03:41:22.517Z,100083.03
2023-03-15T03:43:53.985Z,100098.81
2023-03-15T03:46:25.695Z,100108.34
2023-03-15T03:48:55.798Z,100105.69
2023-03-15T03:51:25.700Z,100120.44
2023-03-15T03:53:55.380Z,100130.88
2023-03-15T03:56:25.237Z,100143.03
2023-03-15T03:58:56.403Z,100146.53
2023-03-15T04:01:33.904Z,100145.56
2023-03-15T04:04:03.638Z,100160.34
2023-03-15T04:06:33.460Z,100157.69
2023-03-15T04:09:04.603Z,100168.16
2023-03-15T04:11:44.062Z,100168.97
2023-03-15T04:14:16.051Z,100176.03
2023-03-15T04:16:48.292Z,100176.06
2023-03-15T04:19:21.970Z,100178.72
2023-03-15T04:21:52.869Z,100185.78
2023-03-15T04:24:40.061Z,100200.63
2023-03-15T04:27:28.301Z,100198.88
2023-03-15T04:30:13.815Z,100195.22
2023-03-15T04:33:12.696Z,100206.44
2023-03-15T04:36:03.103Z,100212.38
2023-03-15T04:38:48.610Z,100213.25
2023-03-15T04:41:40.584Z,100215.88
2023-03-15T04:44:27.867Z,100222.03
2023-03-15T04:47:17.750Z,100225.53
2023-03-15T04:50:20.079Z,100222.84
2023-03-15T04:53:12.383Z,100216.63
2023-03-15T04:56:03.038Z,100228.84
2023-03-15T04:58:36.767Z,100232.38
2023-03-15T05:01:23.839Z,100237.59
2023-03-15T05:04:20.862Z,100248.03
2023-03-15T05:06:50.850Z,100248.88
2023-03-15T05:09:26.231Z,100252.41
2023-03-15T05:12:20.082Z,100246.19
2023-03-15T05:15:01.438Z,100256.53
2023-03-15T05:17:46.749Z,100257.41
2023-03-15T05:20:35.294Z,100229.19
2023-03-15T05:23:34.825Z,100266.88
2023-03-15T05:26:16.306Z,100276.47
2023-03-15T05:28:48.853Z,100289.59
2023-03-15T05:31:18.544Z,100303.59
2023-03-15T05:34:04.893Z,100308.75
2023-03-15T05:36:58.967Z,100316.63
2023-03-15T05:39:57.348Z,100316.56
2023-03-15T05:42:49.968Z,100326.34
2023-03-15T05:45:38.772Z,100330.84
2023-03-15T05:48:34.197Z,100334.38
2023-03-15T05:51:32.059Z,100345.81
2023-03-15T05:54:17.546Z,100350.25
2023-03-15T05:57:06.319Z,100350.25
2023-03-15T05:59:56.769Z,100346.69
2023-03-15T06:02:44.619Z,100360.84
2023-03-15T06:05:34.577Z,100360.88
2023-03-15T06:08:06.918Z,100369.78
2023-03-15T06:10:39.971Z,100382.19
2023-03-15T06:13:12.229Z,100390.28
2023-03-15T06:15:42.869Z,100388.72
2023-03-15T06:18:14.745Z,100395.78
2023-03-15T06:20:44.465Z,100396.72
2023-03-15T06:23:17.034Z,100395.88
2023-03-15T06:25:51.607Z,100392.38
2023-03-15T06:28:23.505Z,100395.72
2023-03-15T06:30:58.134Z,100396.59
2023-03-15T06:33:36.977Z,100401.88
2023-03-15T06:36:06.946Z,100407.13
2023-03-15T06:38:36.926Z,100415.09
2023-03-15T06:41:09.433Z,100420.53
2023-03-15T06:43:40.370Z,100420.72
2023-03-15T06:46:10.353Z,100432.06
2023-03-15T06:48:40.619Z,100435.56
2023-03-15T06:51:12.513Z,100439.13
2023-03-15T06:53:42.565Z,100438.25
2023-03-15T06:56:14.192Z,100446.16
2023-03-15T06:58:44.163Z,100447.19
2023-03-15T07:01:14.412Z,100450.75
2023-03-15T07:03:44.716Z,100455.16
2023-03-15T07:06:14.447Z,100467.47
2023-03-15T07:08:44.308Z,100471.03
2023-03-15T07:11:15.880Z,100481.66
2023-03-15T07:13:45.987Z,100481.31
2023-03-15T07:16:15.889Z,100493.72
2023-03-15T07:18:46.007Z,100490.22
2023-03-15T07:21:15.821Z,100495.16
2023-03-15T07:23:45.950Z,100488.72
2023-03-15T07:26:17.193Z,100498.28
2023-03-15T07:28:47.399Z,100496.38
2023-03-15T07:31:18.031Z,100492.81
2023-03-15T07:33:47.883Z,100488.03
2023-03-15T07:36:17.680Z,100484.25
2023-03-15T07:38:47.871Z,100479.25
2023-03-15T07:41:18.822Z,100494.13
2023-03-15T07:43:59.377Z,100503.63
2023-03-15T07:46:29.144Z,100503.09
2023-03-15T07:48:59.269Z,100513.16
2023-03-15T07:51:29.009Z,100525.91
2023-03-15T07:53:59.018Z,100534.25
2023-03-15T07:56:30.136Z,100544.66
2023-03-15T07:59:00.104Z,100548.81
2023-03-15T08:01:29.825Z,100548.72
2023-03-15T08:03:59.736Z,100554.72
2023-03-15T08:06:29.366Z,100553.81
2023-03-15T08:08:59.245Z,100561.72
2023-03-15T08:11:30.294Z,100567.84
2023-03-15T08:14:00.151Z,100562.50
2023-03-15T08:16:29.789Z,100569.50
2023-03-15T08:18:59.883Z,100574.81
2023-03-15T08:21:29.725Z,100576.75
2023-03-15T08:23:59.809Z,100578.59
2023-03-15T08:26:30.858Z,100581.50
2023-03-15T08:29:01.258Z,100577.28
2023-03-15T08:31:31.288Z,100589.91
2023-03-15T08:34:04.335Z,100557.69
2023-03-15T08:36:34.055Z,100605.56
2023-03-15T08:39:05.782Z,100616.66
2023-03-15T08:41:36.756Z,100621.56
2023-03-15T08:44:06.903Z,100627.81
2023-03-15T08:46:36.598Z,100627.88
2023-03-15T08:49:06.564Z,100626.13
2023-03-15T08:51:36.076Z,100625.41
2023-03-15T08:54:08.204Z,100596.25
2023-03-15T08:56:39.216Z,100636.34
2023-03-15T08:59:10.257Z,100643.19
2023-03-15T09:01:41.442Z,100642.88
2023-03-15T09:04:11.473Z,100641.81
2023-03-15T09:06:42.501Z,100653.75
2023-03-15T09:09:12.443Z,100655.47
2023-03-15T09:11:44.071Z,100659.63
2023-03-15T09:14:15.040Z,100662.34
2023-03-15T09:16:44.892Z,100666.75
2023-03-15T09:19:14.738Z,100657.00
2023-03-15T09:21:45.402Z,100660.41
2023-03-15T09:24:15.493Z,100671.72
2023-03-15T09:26:47.060Z,100668.34
2023-03-15T09:29:17.526Z,100666.53
2023-03-15T09:31:47.412Z,100664.94
2023-03-15T09:34:17.360Z,100686.81
2023-03-15T09:36:53.210Z,100679.97
2023-03-15T09:39:23.400Z,100673.75
2023-03-15T09:41:56.512Z,100685.00
2023-03-15T09:44:36.956Z,100692.28
2023-03-15T09:47:11.401Z,100693.84
2023-03-15T09:49:43.420Z,100703.47
2023-03-15T09:52:20.031Z,100632.25
2023-03-15T09:54:53.368Z,100711.63
2023-03-15T09:57:25.845Z,100718.59
2023-03-15T09:59:56.386Z,100718.63
2023-03-15T10:02:27.148Z,100731.78
2023-03-15T10:04:59.880Z,100720.41
2023-03-15T10:07:31.425Z,100728.28
2023-03-15T10:10:01.904Z,100727.28
2023-03-15T10:12:41.014Z,100736.94
2023-03-15T10:15:25.368Z,100743.84
2023-03-15T10:18:03.850Z,100734.25
2023-03-15T10:20:35.642Z,100736.28
2023-03-15T10:23:09.410Z,100733.59
2023-03-15T10:25:41.353Z,100743.31
2023-03-15T10:28:28.192Z,100756.41
2023-03-15T10:31:01.082Z,100757.13
2023-03-15T10:33:33.468Z,100770.03
2023-03-15T10:36:11.101Z,100773.44
2023-03-15T10:38:42.161Z,100765.66
2023-03-15T10:41:15.360Z,100775.25
2023-03-15T10:43:57.719Z,100774.38
2023-03-15T10:46:27.684Z,100779.66
2023-03-15T10:48:59.067Z,100778.59
2023-03-15T10:51:30.283Z,100778.59
2023-03-15T10:54:01.585Z,100786.50
2023-03-15T10:56:32.861Z,100782.41
2023-03-15T10:59:12.441Z,100783.44
2023-03-15T11:01:43.366Z,100779.78
2023-03-15T11:04:17.903Z,100779.72
2023-03-15T11:06:49.401Z,100784.66
2023-03-15T11:09:19.813Z,100789.75
2023-03-15T11:11:54.072Z,100791.50
2023-03-15T11:14:25.123Z,100791.44
2023-03-15T11:16:56.328Z,100793.06
2023-03-15T11:19:28.566Z,100793.88
2023-03-15T11:21:59.775Z,100791.16
2023-03-15T11:24:30.118Z,100797.31
2023-03-15T11:27:01.856Z,100787.00
2023-03-15T11:29:33.745Z,100784.91
2023-03-15T11:32:05.284Z,100789.59
2023-03-15T11:34:40.687Z,100784.53
2023-03-15T11:37:16.519Z,100786.25
2023-03-15T11:39:50.303Z,100793.06
2023-03-15T11:42:23.861Z,100798.16
2023-03-15T11:44:58.829Z,100792.19
2023-03-15T11:47:36.337Z,100795.06
2023-03-15T11:50:06.488Z,100797.81
2023-03-15T11:52:36.400Z,100798.59
2023-03-15T11:55:06.328Z,100796.03
2023-03-15T11:57:40.927Z,100799.53
2023-03-15T12:00:21.327Z,100813.63
2023-03-15T12:02:52.769Z,100813.16
2023-03-15T12:05:37.137Z,100817.34
2023-03-15T12:08:18.486Z,100815.00
2023-03-15T12:10:49.869Z,100831.00
2023-03-15T12:13:21.793Z,100834.66
2023-03-15T12:15:53.496Z,100835.47
2023-03-15T12:18:27.532Z,100824.19
2023-03-15T12:21:11.357Z,100826.91
2023-03-15T12:23:42.896Z,100835.69
2023-03-15T12:26:18.419Z,100832.16
2023-03-15T12:28:52.188Z,100827.78
2023-03-15T12:31:24.208Z,100839.25
2023-03-15T12:33:58.007Z,100850.69
2023-03-15T12:36:34.013Z,100861.25
2023-03-15T12:39:21.096Z,100850.69
2023-03-15T12:41:51.501Z,100847.22
2023-03-15T12:44:39.098Z,100860.41
2023-03-15T12:47:10.516Z,100859.41
2023-03-15T12:49:43.003Z,100854.19
2023-03-15T12:52:28.961Z,100861.25
2023-03-15T12:55:02.662Z,100869.09
2023-03-15T12:57:37.615Z,100867.44
2023-03-15T13:00:12.221Z,100866.56
2023-03-15T13:02:47.255Z,100868.38
2023-03-15T13:05:22.222Z,100865.72
2023-03-15T13:08:08.682Z,100872.78
2023-03-15T13:10:48.416Z,100872.75
2023-03-15T13:13:33.261Z,100886.44
2023-03-15T13:16:14.945Z,100897.06
2023-03-15T13:18:50.515Z,100885.59
2023-03-15T13:21:23.084Z,100893.22
2023-03-15T13:23:53.954Z,100892.44
2023-03-15T13:26:29.459Z,100889.28
2023-03-15T13:29:01.296Z,100887.69
2023-03-15T13:31:32.050Z,100883.38
2023-03-15T13:34:12.811Z,100890.41
2023-03-15T13:36:46.048Z,100887.47
2023-03-15T13:39:20.154Z,100907.16
2023-03-15T13:41:50.427Z,100917.31
2023-03-15T13:44:21.645Z,100922.41
2023-03-15T13:46:52.621Z,100923.06
2023-03-15T13:49:24.057Z,100920.31
2023-03-15T13:51:54.685Z,100930.66
2023-03-15T13:54:27.016Z,100931.41
2023-03-15T13:56:59.543Z,100939.25
2023-03-15T13:59:32.909Z,100932.22
2023-03-15T14:02:04.833Z,100930.53
2023-03-15T14:04:39.208Z,100943.56
2023-03-15T14:07:23.867Z,100931.56
2023-03-15T14:10:08.993Z,100938.53
2023-03-15T14:12:38.980Z,100952.63
2023-03-15T14:15:16.500Z,100952.81
2023-03-15T14:17:53.039Z,100947.47
2023-03-15T14:20:28.761Z,100952.88
2023-03-15T14:23:01.101Z,100954.72
2023-03-15T14:25:32.126Z,100956.53
2023-03-15T14:28:03.194Z,100949.50
2023-03-15T14:30:34.344Z,100960.94
2023-03-15T14:33:07.809Z,100965.31
2023-03-15T14:35:46.610Z,100960.00
2023-03-15T14:38:17.911Z,100966.25
2023-03-15T14:40:47.925Z,100968.91
2023-03-15T14:43:17.816Z,100968.06
2023-03-15T14:45:48.471Z,100969.81
2023-03-15T14:48:23.066Z,100971.53
2023-03-15T14:50:55.043Z,100981.03
2023-03-15T14:53:26.358Z,100982.53
2023-03-15T14:55:55.950Z,100992.19
2023-03-15T14:58:25.915Z,100990.44
2023-03-15T15:00:58.268Z,100989.56
2023-03-15T15:03:33.474Z,100988.75
2023-03-15T15:06:05.031Z,100994.78
2023-03-15T15:08:38.789Z,101001.78
2023-03-15T15:11:09.766Z,101002.59
2023-03-15T15:13:40.290Z,100999.16
2023-03-15T15:16:10.162Z,101000.91
2023-03-15T15:18:40.163Z,100994.78
2023-03-15T15:21:15.286Z,100994.69
2023-03-15T15:23:57.959Z,101013.94
2023-03-15T15:26:31.221Z,101008.47
2023-03-15T15:29:02.154Z,101014.59
2023-03-15T15:31:34.635Z,101027.66
2023-03-15T15:34:06.770Z,101020.56
2023-03-15T15:36:39.912Z,101018.81
2023-03-15T15:39:17.666Z,101038.13
2023-03-15T15:41:47.526Z,101041.56
2023-03-15T15:44:18.617Z,101047.63
2023-03-15T15:46:48.380Z,101050.16
2023-03-15T15:49:18.511Z,101048.38
2023-03-15T15:51:50.633Z,101056.97
2023-03-15T15:54:22.185Z,101051.53
2023-03-15T15:56:56.011Z,101056.78
2023-03-15T15:59:32.353Z,101053.97
2023-03-15T16:02:03.828Z,101051.31
2023-03-15T16:04:33.974Z,101066.03
2023-03-15T16:07:05.537Z,101066.00
2023-03-15T16:09:36.914Z,101066.81
2023-03-15T16:12:14.203Z,101072.91
2023-03-15T16:14:44.363Z,101080.50
2023-03-15T16:17:16.370Z,101079.63
2023-03-15T16:19:46.915Z,101086.47
2023-03-15T16:22:18.996Z,101092.47
2023-03-15T16:24:52.793Z,101096.81
2023-03-15T16:27:24.504Z,101097.53
2023-03-15T16:30:14.339Z,101102.63
2023-03-15T16:32:45.054Z,101113.81
2023-03-15T16:35:16.285Z,101116.38
2023-03-15T16:37:47.640Z,101124.13
2023-03-15T16:40:21.916Z,101121.34
2023-03-15T16:42:52.300Z,101124.66
2023-03-15T16:45:24.479Z,101136.69
2023-03-15T16:47:56.699Z,101134.94
2023-03-15T16:50:26.702Z,101145.97
2023-03-15T16:52:58.463Z,101145.88
2023-03-15T16:55:28.938Z,101146.53
2023-03-15T16:57:59.256Z,101154.22
2023-03-15T17:00:31.888Z,101156.41
2023-03-15T17:03:04.761Z,101158.34
2023-03-15T17:05:35.003Z,101159.41
2023-03-15T17:08:05.343Z,101165.78
2023-03-15T17:10:35.504Z,101169.41
2023-03-15T17:13:05.479Z,101173.41
2023-03-15T17:15:36.639Z,101174.13
2023-03-15T17:18:08.023Z,101183.75
2023-03-15T17:20:38.301Z,101188.56
2023-03-15T17:23:08.398Z,101192.69
2023-03-15T17:25:38.310Z,101196.84
2023-03-15T17:28:08.928Z,101200.91
2023-03-15T17:30:40.087Z,101214.50
2023-03-15T17:33:10.328Z,101209.75
2023-03-15T17:35:41.560Z,101215.81
2023-03-15T17:38:16.510Z,101221.84
2023-03-15T17:40:46.352Z,101215.69
2023-03-15T17:43:17.523Z,101218.22
2023-03-15T17:45:48.872Z,101213.81
2023-03-15T17:48:19.431Z,101219.56
2023-03-15T17:50:49.414Z,101225.19
2023-03-15T17:53:20.428Z,101228.63
2023-03-15T17:55:50.055Z,101234.69
2023-03-15T17:58:21.375Z,101238.81
2023-03-15T18:00:55.049Z,101237.59
2023-03-15T18:03:26.665Z,101237.38
2023-03-15T18:05:57.986Z,101234.72
2023-03-15T18:08:38.193Z,101239.84
2023-03-15T18:11:19.454Z,101245.72
2023-03-15T18:13:52.782Z,101242.13
2023-03-15T18:16:26.893Z,101244.22
2023-03-15T18:18:57.493Z,101245.22
2023-03-15T18:21:28.210Z,101250.31
2023-03-15T18:23:58.278Z,101250.50
2023-03-15T18:26:27.948Z,101255.41
2023-03-15T18:28:58.445Z,101257.09
2023-03-15T18:31:30.320Z,101260.34
2023-03-15T18:34:01.528Z,101259.34
2023-03-15T18:36:32.851Z,101256.84
2023-03-15T18:39:06.670Z,101265.28
2023-03-15T18:41:36.517Z,101261.53
2023-03-15T18:44:07.037Z,101260.78
2023-03-15T18:46:38.561Z,101269.56
2023-03-15T18:49:08.892Z,101270.84
2023-03-15T18:51:38.925Z,101272.28
2023-03-15T18:54:09.392Z,101282.19
2023-03-15T18:56:39.043Z,101281.88
2023-03-15T18:59:09.221Z,101285.03
2023-03-15T19:01:40.455Z,101288.19
2023-03-15T19:04:11.346Z,101290.00
2023-03-15T19:06:41.197Z,101285.41
2023-03-15T19:09:11.214Z,101288.69
2023-03-15T19:11:42.104Z,101287.25
2023-03-15T19:14:12.193Z,101292.25
2023-03-15T19:16:43.248Z,101285.31
2023-03-15T19:19:14.297Z,101300.88
2023-03-15T19:21:43.874Z,101297.44
2023-03-15T19:24:14.106Z,101302.31
2023-03-15T19:26:44.822Z,101308.34
2023-03-15T19:29:14.829Z,101311.34
2023-03-15T19:31:45.949Z,101321.91
2023-03-15T19:34:15.989Z,101330.69
2023-03-15T19:36:45.769Z,101321.75
2023-03-15T19:39:15.705Z,101330.81
2023-03-15T19:41:45.424Z,101335.94
2023-03-15T19:44:15.728Z,101333.94
2023-03-15T19:46:46.855Z,101333.13
2023-03-15T19:49:16.939Z,101345.78
2023-03-15T19:51:46.528Z,101344.38
2023-03-15T19:54:16.565Z,101341.75
2023-03-15T19:56:47.104Z,101349.69
2023-03-15T19:59:18.049Z,101355.78
2023-03-15T20:01:50.004Z,101357.44
2023-03-15T20:04:23.204Z,101354.53
2023-03-15T20:06:53.875Z,101358.56
2023-03-15T20:09:24.227Z,101359.59
2023-03-15T20:11:54.613Z,101357.97
2023-03-15T20:14:25.385Z,101354.91
2023-03-15T20:16:56.557Z,101358.94
2023-03-15T20:19:27.498Z,101355.38
2023-03-15T20:21:58.299Z,101367.72
2023-03-15T20:24:28.954Z,101364.06
2023-03-15T20:27:00.377Z,101356.94
2023-03-15T20:29:32.070Z,101366.00
2023-03-15T20:32:04.771Z,101361.41
2023-03-15T20:34:36.217Z,101363.41
2023-03-15T20:37:06.880Z,101364.44
2023-03-15T20:39:37.562Z,101370.44
2023-03-15T20:42:07.492Z,101369.25
2023-03-15T20:44:37.801Z,101379.75
2023-03-15T20:47:09.530Z,101380.66
2023-03-15T20:49:40.112Z,101382.50
2023-03-15T20:52:09.815Z,101389.25
2023-03-15T20:54:39.758Z,101391.94
2023-03-15T20:57:09.190Z,101394.25
2023-03-15T20:59:40.078Z,101384.44
2023-03-15T21:02:12.316Z,101387.03
2023-03-15T21:04:42.378Z,101390.78
2023-03-15T21:07:12.183Z,101384.88
2023-03-15T21:09:42.209Z,101389.66
2023-03-15T21:12:11.865Z,101390.34
2023-03-15T21:14:41.769Z,101398.97
2023-03-15T21:17:14.661Z,101391.25
2023-03-15T21:19:44.723Z,101391.16
2023-03-15T21:22:14.348Z,101398.16
2023-03-15T21:24:55.095Z,101394.66
2023-03-15T21:27:26.598Z,101396.56
2023-03-15T21:29:56.793Z,101401.63
2023-03-15T21:32:30.914Z,101405.56
2023-03-15T21:35:01.627Z,101399.09
2023-03-15T21:37:31.267Z,101400.63
2023-03-15T21:40:01.403Z,101399.44
2023-03-15T21:42:31.100Z,101407.66
2023-03-15T21:45:01.082Z,101396.38
2023-03-15T21:47:32.644Z,101406.78
2023-03-15T21:50:03.108Z,101398.41
2023-03-15T21:52:34.279Z,101404.44
2023-03-15T21:55:05.422Z,101406.72
2023-03-15T21:57:35.778Z,101407.22
2023-03-15T22:00:12.016Z,101409.56
2023-03-15T22:02:43.572Z,101408.91
2023-03-15T22:05:13.783Z,101415.25
2023-03-15T22:07:44.635Z,101409.75
2023-03-15T22:10:15.779Z,101413.97
2023-03-15T22:12:45.477Z,101412.97
2023-03-15T22:15:15.853Z,101420.13
2023-03-15T22:17:47.014Z,101421.91
2023-03-15T22:20:17.285Z,101414.84
2023-03-15T22:22:46.887Z,101416.63
2023-03-15T22:25:17.132Z,101417.53
2023-03-15T22:27:46.703Z,101416.31
2023-03-15T22:30:18.021Z,101424.66
2023-03-15T22:32:49.249Z,101423.53
2023-03-15T22:35:19.537Z,101422.00
2023-03-15T22:37:49.637Z,101433.59
2023-03-15T22:40:19.737Z,101428.56
2023-03-15T22:42:51.569Z,101424.53
2023-03-15T22:45:21.825Z,101435.53
2023-03-15T22:47:52.933Z,101435.28
2023-03-15T22:50:22.953Z,101443.56
2023-03-15T22:52:53.015Z,101446.09
2023-03-15T22:55:23.266Z,101448.81
2023-03-15T22:57:54.209Z,101457.28
2023-03-15T23:00:25.274Z,101457.03
2023-03-15T23:02:56.501Z,101453.47
2023-03-15T23:05:26.505Z,101451.56
2023-03-15T23:07:56.102Z,101459.19
2023-03-15T23:10:26.174Z,101456.28
2023-03-15T23:12:56.062Z,101457.22
2023-03-15T23:15:25.917Z,101456.19
2023-03-15T23:17:57.374Z,101451.22
2023-03-15T23:20:28.178Z,101460.97
2023-03-15T23:22:58.022Z,101462.09
2023-03-15T23:25:29.189Z,101461.03
2023-03-15T23:27:59.047Z,101470.34
2023-03-15T23:30:35.124Z,101464.59
2023-03-15T23:33:08.766Z,101468.47
2023-03-15T23:35:38.834Z,101467.59
2023-03-15T23:38:08.818Z,101469.91
2023-03-15T23:40:38.796Z,101469.44
2023-03-15T23:43:09.641Z,101481.19
2023-03-15T23:45:40.250Z,101473.13
2023-03-15T23:48:12.768Z,101479.75
2023-03-15T23:50:44.542Z,101483.97
2023-03-15T23:53:14.350Z,101489.00
2023-03-15T23:55:44.382Z,101478.78
2023-03-15T23:58:13.990Z,101482.19
